Time;durP1;ratioP1;P1;durP2;ratioP2;P2;SDS_P1;SDS_P2;PMS_P1;PMS_P2;Temp;Humidity;BMP_temperature;BMP_pressure;BME280_temperature;BME280_humidity;BME280_pressure;Samples;Min_cycle;Max_cycle;Signal;HPM_P1;HPM_P2
2023/06/20 00:09:05;;;;;;;29.67;24.67;;;16.10;99.90;;;;;;21096297;28;20036;-50
2023/06/20 00:19:08;;;;;;;33.60;26.10;;;16.00;99.90;;;;;;21077870;28;20035;-50
2023/06/20 00:29:10;;;;;;;33.45;26.73;;;15.80;99.90;;;;;;21110538;28;20031;-47
2023/06/20 00:39:11;;;;;;;35.60;27.45;;;15.80;99.90;;;;;;21108287;28;20047;-48
2023/06/20 00:49:14;;;;;;;34.88;28.65;;;15.80;99.90;;;;;;21143375;28;20053;-52
2023/06/20 00:59:15;;;;;;;35.70;27.55;;;15.90;99.90;;;;;;21148283;28;20396;-47
2023/06/20 01:09:44;;;;;;;35.20;28.63;;;15.70;99.90;;;;;;21148614;28;20023;-46
2023/06/20 01:19:56;;;;;;;38.27;29.53;;;15.70;99.90;;;;;;21146333;28;20036;-49
2023/06/20 01:30:03;;;;;;;34.33;27.63;;;15.60;99.90;;;;;;21146489;28;20028;-48
2023/06/20 01:40:09;;;;;;;37.85;28.98;;;15.40;99.90;;;;;;21120923;28;20098;-48
2023/06/20 01:50:12;;;;;;;40.13;29.73;;;15.40;99.90;;;;;;21079341;28;20031;-48
2023/06/20 02:00:16;;;;;;;43.65;33.53;;;15.40;99.90;;;;;;21103708;28;20445;-48
2023/06/20 02:10:21;;;;;;;44.08;33.10;;;15.30;99.90;;;;;;21073089;28;20044;-47
2023/06/20 02:20:23;;;;;;;47.30;35.03;;;15.20;99.90;;;;;;21078404;28;20393;-49
2023/06/20 02:30:28;;;;;;;44.53;33.58;;;15.10;99.90;;;;;;21101919;28;20082;-48
2023/06/20 02:40:30;;;;;;;48.95;36.58;;;14.90;99.90;;;;;;21091517;28;20057;-47
2023/06/20 02:50:53;;;;;;;47.28;35.08;;;14.80;99.90;;;;;;21152276;28;20038;-44
2023/06/20 03:00:58;;;;;;;46.72;34.80;;;14.70;99.90;;;;;;21157832;28;20027;-51
2023/06/20 03:11:01;;;;;;;47.83;34.42;;;14.70;99.90;;;;;;21139281;28;20020;-52
2023/06/20 03:21:03;;;;;;;45.58;33.55;;;14.70;99.90;;;;;;21139338;28;20031;-47
2023/06/20 03:31:05;;;;;;;36.00;27.77;;;14.60;99.90;;;;;;21137809;28;20096;-53
2023/06/20 03:41:07;;;;;;;32.15;26.30;;;15.10;99.90;;;;;;21140028;28;20039;-47
2023/06/20 03:51:09;;;;;;;22.83;18.90;;;15.10;99.90;;;;;;21136529;28;20424;-49
2023/06/20 04:01:10;;;;;;;21.38;17.75;;;15.30;99.90;;;;;;21136008;28;20039;-48
2023/06/20 04:11:12;;;;;;;22.33;18.65;;;15.30;99.90;;;;;;21152300;28;20023;-49
2023/06/20 04:21:16;;;;;;;21.67;18.27;;;15.20;99.90;;;;;;21152550;28;20537;-48
2023/06/20 04:31:18;;;;;;;23.25;19.00;;;15.20;99.90;;;;;;21136532;28;20086;-45
2023/06/20 04:41:19;;;;;;;15.32;10.35;;;15.20;99.90;;;;;;21131918;28;20035;-48
2023/06/20 04:51:22;;;;;;;22.33;12.30;;;15.40;99.90;;;;;;21149266;28;20412;-48
2023/06/20 05:01:24;;;;;;;12.07;10.40;;;15.80;99.90;;;;;;21148723;28;20023;-46
2023/06/20 05:11:26;;;;;;;11.30;9.10;;;15.80;99.90;;;;;;21146957;28;20357;-52
2023/06/20 05:21:28;;;;;;;9.95;6.93;;;15.90;99.90;;;;;;21129062;28;20061;-50
2023/06/20 05:31:30;;;;;;;10.63;7.93;;;15.90;99.90;;;;;;21146382;28;20481;-46
2023/06/20 05:41:31;;;;;;;11.35;9.85;;;16.00;99.90;;;;;;21143757;28;20039;-50
2023/06/20 05:51:33;;;;;;;12.65;10.27;;;16.10;99.90;;;;;;21145955;28;20080;-51
2023/06/20 06:01:34;;;;;;;14.82;10.20;;;16.40;99.90;;;;;;21145478;28;20097;-48
2023/06/20 06:11:36;;;;;;;11.38;9.65;;;16.80;99.90;;;;;;21141104;28;20028;-49
2023/06/20 06:21:37;;;;;;;9.13;7.20;;;18.90;99.90;;;;;;21145851;28;20035;-49
2023/06/20 06:31:39;;;;;;;9.60;8.70;;;21.80;99.90;;;;;;21154548;27;20031;-50
2023/06/20 06:41:42;;;;;;;9.20;7.00;;;23.90;99.90;;;;;;21152747;28;20143;-52
2023/06/20 06:51:44;;;;;;;8.05;7.25;;;25.90;99.90;;;;;;21157605;28;20036;-56
2023/06/20 07:01:46;;;;;;;8.75;7.85;;;27.20;97.60;;;;;;21155164;28;20319;-55
2023/06/20 07:11:48;;;;;;;9.32;8.23;;;27.90;95.50;;;;;;21150762;28;20057;-57
2023/06/20 07:21:50;;;;;;;9.80;8.77;;;28.70;94.60;;;;;;21152264;28;20084;-50
2023/06/20 07:31:51;;;;;;;13.10;11.85;;;29.10;93.50;;;;;;21148326;28;20020;-52
2023/06/20 07:41:53;;;;;;;10.50;9.50;;;28.90;93.40;;;;;;21135860;28;20093;-50
2023/06/20 07:51:54;;;;;;;11.98;10.95;;;28.30;93.50;;;;;;21155915;28;20407;-51
2023/06/20 08:01:56;;;;;;;11.55;10.43;;;28.10;95.70;;;;;;21153368;28;20451;-51
2023/06/20 08:11:57;;;;;;;17.02;12.80;;;28.00;93.90;;;;;;21152643;28;20432;-50
2023/06/20 08:21:59;;;;;;;13.70;12.32;;;27.60;94.30;;;;;;21152106;28;20408;-51
2023/06/20 08:32:01;;;;;;;12.93;11.65;;;27.60;95.60;;;;;;21150967;28;20043;-53
2023/06/20 08:42:03;;;;;;;14.93;13.52;;;28.00;95.00;;;;;;21131331;28;20047;-50
2023/06/20 08:52:10;;;;;;;17.02;15.50;;;28.00;96.00;;;;;;21148863;28;20054;-54
2023/06/20 09:02:11;;;;;;;18.77;16.98;;;27.80;97.80;;;;;;21146102;28;20084;-51
2023/06/20 09:12:14;;;;;;;15.95;14.27;;;28.30;96.10;;;;;;21129845;28;20036;-55
2023/06/20 09:22:18;;;;;;;16.92;15.27;;;27.40;96.20;;;;;;21147405;28;20333;-54
2023/06/20 09:32:21;;;;;;;14.65;13.27;;;27.40;97.90;;;;;;21142931;28;20088;-55
2023/06/20 09:42:23;;;;;;;17.20;15.40;;;28.30;96.90;;;;;;21139048;28;20116;-51
2023/06/20 09:52:42;;;;;;;17.00;15.18;;;28.60;96.80;;;;;;21133816;28;20096;-48
2023/06/20 10:02:45;;;;;;;20.35;18.05;;;28.50;95.70;;;;;;21159453;27;20120;-54
2023/06/20 10:12:48;;;;;;;17.70;16.02;;;28.50;96.00;;;;;;21161764;28;20096;-52
2023/06/20 10:22:49;;;;;;;14.88;12.82;;;28.40;95.80;;;;;;21161909;28;20032;-50
2023/06/20 10:33:11;;;;;;;18.77;16.75;;;28.80;95.20;;;;;;21160150;28;20065;-54
2023/06/20 10:43:22;;;;;;;19.08;16.85;;;29.30;95.60;;;;;;21156849;28;20031;-54
2023/06/20 10:53:24;;;;;;;20.83;18.77;;;29.80;94.90;;;;;;21157837;28;20031;-51
2023/06/20 11:03:27;;;;;;;21.38;19.25;;;28.90;95.70;;;;;;21158326;28;20035;-54
2023/06/20 11:13:28;;;;;;;18.60;16.63;;;28.40;97.20;;;;;;21153527;28;20040;-52
2023/06/20 11:23:36;;;;;;;19.48;17.48;;;29.10;96.00;;;;;;21157180;28;20039;-51
2023/06/20 11:33:38;;;;;;;21.45;18.30;;;28.20;97.50;;;;;;21155386;28;20028;-50
2023/06/20 11:43:43;;;;;;;18.52;16.63;;;29.00;96.60;;;;;;21153018;28;20047;-52
2023/06/20 11:53:44;;;;;;;18.37;16.43;;;30.00;94.90;;;;;;21154561;28;20035;-56
2023/06/20 12:04:01;;;;;;;18.48;13.90;;;30.40;95.00;;;;;;21149707;28;20039;-50
2023/06/20 12:14:03;;;;;;;18.27;14.88;;;29.50;95.30;;;;;;21152116;28;20437;-54
2023/06/20 12:24:08;;;;;;;16.38;14.60;;;29.80;95.40;;;;;;21150986;28;20299;-53
2023/06/20 12:34:10;;;;;;;15.50;13.93;;;29.30;93.90;;;;;;21151224;28;20027;-52
2023/06/20 12:44:11;;;;;;;15.40;13.90;;;28.80;95.40;;;;;;21149860;28;20412;-54
2023/06/20 12:54:13;;;;;;;18.15;14.43;;;28.90;94.60;;;;;;21150030;28;20028;-51
2023/06/20 13:04:14;;;;;;;14.25;12.85;;;28.60;94.80;;;;;;21148359;28;20031;-51
2023/06/20 13:14:17;;;;;;;17.25;15.40;;;28.50;94.40;;;;;;21147867;28;20031;-55
2023/06/20 13:24:19;;;;;;;18.15;16.23;;;28.30;94.90;;;;;;21147631;28;20053;-52
2023/06/20 13:34:21;;;;;;;22.38;20.05;;;27.90;95.20;;;;;;21146563;28;20044;-53
2023/06/20 13:44:23;;;;;;;24.13;21.67;;;27.50;95.80;;;;;;21145551;28;20039;-51
2023/06/20 13:54:26;;;;;;;23.77;21.40;;;27.00;97.40;;;;;;21145079;28;20545;-50
2023/06/20 14:04:28;;;;;;;25.15;22.45;;;26.60;97.40;;;;;;21145578;28;20446;-51
2023/06/20 14:14:30;;;;;;;21.63;19.15;;;26.80;97.20;;;;;;21145520;28;20031;-52
2023/06/20 14:24:33;;;;;;;25.35;22.88;;;27.50;95.50;;;;;;21144931;28;20324;-54
2023/06/20 14:34:35;;;;;;;26.77;23.98;;;28.50;94.20;;;;;;21144513;28;20077;-53
2023/06/20 14:44:36;;;;;;;23.90;21.38;;;28.30;95.00;;;;;;21149782;28;20451;-53
2023/06/20 14:54:38;;;;;;;28.30;22.33;;;28.60;93.90;;;;;;21160816;28;20069;-49
2023/06/20 15:04:39;;;;;;;23.38;21.08;;;28.30;94.40;;;;;;21158115;28;20040;-54
2023/06/20 15:14:41;;;;;;;23.90;21.40;;;28.20;93.70;;;;;;21157926;28;20027;-49
2023/06/20 15:24:44;;;;;;;22.08;19.83;;;27.70;94.10;;;;;;21157266;28;20031;-54
2023/06/20 15:34:46;;;;;;;25.80;22.55;;;26.70;93.40;;;;;;21156280;28;20546;-51
2023/06/20 15:44:47;;;;;;;21.35;19.15;;;25.90;95.30;;;;;;21154743;28;20043;-51
2023/06/20 15:54:49;;;;;;;22.73;18.08;;;25.90;95.50;;;;;;21154741;28;20043;-54
2023/06/20 16:04:51;;;;;;;21.95;17.67;;;25.70;95.30;;;;;;21153905;28;20039;-50
2023/06/20 16:14:52;;;;;;;15.50;13.90;;;25.80;94.60;;;;;;21152882;28;20023;-51
2023/06/20 16:24:56;;;;;;;15.85;14.23;;;25.30;93.30;;;;;;21152241;28;20031;-55
2023/06/20 16:34:57;;;;;;;11.13;9.68;;;24.90;94.00;;;;;;21150703;28;20031;-54
2023/06/20 16:45:02;;;;;;;10.77;8.25;;;24.50;92.60;;;;;;21150016;28;20112;-48
2023/06/20 16:55:04;;;;;;;12.38;11.10;;;24.10;93.30;;;;;;21149419;28;20035;-54
2023/06/20 17:05:09;;;;;;;15.65;13.40;;;23.30;95.20;;;;;;21147819;28;20028;-50
2023/06/20 17:15:10;;;;;;;14.75;12.27;;;22.70;97.10;;;;;;21143770;28;20036;-51
2023/06/20 17:25:12;;;;;;;22.92;13.90;;;22.00;98.90;;;;;;21148455;28;20096;-49
2023/06/20 17:35:13;;;;;;;21.00;14.60;;;21.40;99.00;;;;;;21147994;28;20079;-54
2023/06/20 17:45:15;;;;;;;19.45;15.73;;;20.80;99.90;;;;;;21145836;28;20403;-49
2023/06/20 17:55:17;;;;;;;20.30;16.42;;;20.00;99.90;;;;;;21145988;28;20476;-49
2023/06/20 18:05:19;;;;;;;24.08;15.98;;;19.10;99.90;;;;;;21145398;28;20441;-50
2023/06/20 18:15:20;;;;;;;15.13;12.35;;;18.30;99.90;;;;;;21145355;28;20035;-50
2023/06/20 18:25:22;;;;;;;13.38;9.05;;;18.00;99.90;;;;;;21161342;28;20042;-48
2023/06/20 18:35:24;;;;;;;10.43;6.78;;;17.60;99.90;;;;;;21145401;28;20101;-52
2023/06/20 18:45:25;;;;;;;8.93;6.18;;;17.40;99.90;;;;;;21159666;28;20051;-49
2023/06/20 18:55:27;;;;;;;11.02;6.07;;;17.00;99.90;;;;;;21159006;28;20032;-50
2023/06/20 19:05:29;;;;;;;10.93;5.90;;;16.60;99.90;;;;;;21158606;28;20027;-51
2023/06/20 19:15:32;;;;;;;8.10;5.10;;;16.30;99.90;;;;;;21139165;28;20031;-49
2023/06/20 19:25:34;;;;;;;6.38;4.50;;;16.20;99.90;;;;;;21156738;28;20035;-48
2023/06/20 19:35:35;;;;;;;7.22;4.13;;;15.80;99.90;;;;;;21155391;28;20031;-54
2023/06/20 19:45:37;;;;;;;7.03;4.53;;;15.50;99.90;;;;;;21154694;28;20046;-49
2023/06/20 19:55:38;;;;;;;7.05;4.18;;;15.30;99.90;;;;;;21154091;28;20045;-46
2023/06/20 20:05:40;;;;;;;6.88;4.35;;;15.30;99.90;;;;;;21153865;28;20023;-48
2023/06/20 20:15:42;;;;;;;5.97;3.90;;;15.20;99.90;;;;;;21152361;28;20442;-48
2023/06/20 20:25:43;;;;;;;7.82;4.97;;;15.00;99.90;;;;;;21151800;28;20031;-51
2023/06/20 20:35:45;;;;;;;7.88;5.00;;;14.90;99.90;;;;;;21152867;28;20682;-48
2023/06/20 20:45:49;;;;;;;9.63;4.47;;;14.80;99.90;;;;;;21149351;28;20035;-52
2023/06/20 20:55:51;;;;;;;9.32;4.45;;;14.90;99.90;;;;;;21149342;28;20537;-47
2023/06/20 21:05:53;;;;;;;6.63;3.50;;;14.80;99.90;;;;;;21148585;28;20039;-49
2023/06/20 21:15:55;;;;;;;10.27;3.97;;;14.80;99.90;;;;;;21147975;28;20029;-51
2023/06/20 21:25:57;;;;;;;8.88;4.38;;;15.00;99.90;;;;;;21147363;28;20088;-45
2023/06/20 21:35:59;;;;;;;13.60;5.60;;;14.90;99.90;;;;;;21147015;28;20077;-46
2023/06/20 21:46:02;;;;;;;13.68;4.88;;;14.80;99.90;;;;;;21146663;28;20047;-49
2023/06/20 21:56:04;;;;;;;8.63;4.80;;;14.80;99.90;;;;;;21146009;28;20031;-53
2023/06/20 22:06:06;;;;;;;9.20;5.90;;;14.80;99.90;;;;;;21146184;28;20057;-49
2023/06/20 22:16:11;;;;;;;12.95;5.45;;;14.80;99.90;;;;;;21145587;28;20036;-50
2023/06/20 22:26:13;;;;;;;11.75;5.95;;;14.70;99.90;;;;;;21145177;28;20027;-51
2023/06/20 22:36:15;;;;;;;10.13;5.72;;;14.80;99.90;;;;;;21145579;28;20043;-50
2023/06/20 22:46:18;;;;;;;9.82;4.70;;;14.80;99.90;;;;;;21144115;28;20039;-49
2023/06/20 22:56:20;;;;;;;8.52;5.13;;;14.70;99.90;;;;;;21144230;28;20028;-53
2023/06/20 23:06:21;;;;;;;10.38;5.40;;;14.70;99.90;;;;;;21150540;28;20057;-49
2023/06/20 23:16:23;;;;;;;17.00;5.28;;;14.80;99.90;;;;;;21158416;28;20129;-50
2023/06/20 23:26:25;;;;;;;8.10;4.95;;;14.90;99.90;;;;;;21158478;28;20380;-52
2023/06/20 23:36:27;;;;;;;10.63;5.40;;;15.10;99.90;;;;;;21157044;28;20035;-48
2023/06/20 23:46:29;;;;;;;10.20;4.80;;;15.00;99.90;;;;;;21155672;28;20036;-50
2023/06/20 23:56:33;;;;;;;11.13;4.50;;;15.00;99.90;;;;;;21155289;28;20034;-51
